Terminal Aerodrome Forecast
Issued by NWS Buffalo, NY

Home | Current Version | Previous Version | Text Only | Print | Product List | Glossary On
Versions: 1 2 3 4 5 6 7 8 9 10 11 12 13 14 15 16 17 18 19 20 21 22 23 24 25 26 27
080
FTUS41 KBUF 070910 AAB
TAFART
TAF AMD
KART 070910Z 0709/0806 23008KT P6SM BKN050
     FM071200 20006KT P6SM BKN050
     FM071600 17006KT P6SM BKN050
     FM072100 08006KT P6SM SCT050 BKN100=

USA.gov is the U.S. government's official web portal to all federal, state and local government web resources and services.